sensor_id;sensor_type;location;lat;lon;timestamp;P1;durP1;ratioP1;P2;durP2;ratioP2
5343;SDS011;2694;48.950;8.970;2023-02-01T00:00:19;3.88;;;1.70;;
5343;SDS011;2694;48.950;8.970;2023-02-01T00:02:46;3.05;;;1.80;;
5343;SDS011;2694;48.950;8.970;2023-02-01T00:05:13;3.08;;;2.00;;
5343;SDS011;2694;48.950;8.970;2023-02-01T00:07:40;3.38;;;2.25;;
5343;SDS011;2694;48.950;8.970;2023-02-01T00:10:09;3.20;;;2.03;;
5343;SDS011;2694;48.950;8.970;2023-02-01T00:12:38;4.50;;;1.80;;
5343;SDS011;2694;48.950;8.970;2023-02-01T00:15:05;3.35;;;1.90;;
5343;SDS011;2694;48.950;8.970;2023-02-01T00:17:33;2.22;;;1.55;;
5343;SDS011;2694;48.950;8.970;2023-02-01T00:19:59;3.25;;;2.08;;
5343;SDS011;2694;48.950;8.970;2023-02-01T00:22:27;4.10;;;1.90;;
5343;SDS011;2694;48.950;8.970;2023-02-01T00:24:53;5.60;;;2.50;;
5343;SDS011;2694;48.950;8.970;2023-02-01T00:27:22;3.42;;;2.13;;
5343;SDS011;2694;48.950;8.970;2023-02-01T00:29:48;6.68;;;2.40;;
5343;SDS011;2694;48.950;8.970;2023-02-01T00:32:15;4.18;;;2.03;;
5343;SDS011;2694;48.950;8.970;2023-02-01T00:34:42;3.30;;;1.80;;
5343;SDS011;2694;48.950;8.970;2023-02-01T00:37:09;3.77;;;2.00;;
5343;SDS011;2694;48.950;8.970;2023-02-01T00:39:36;3.40;;;2.20;;
5343;SDS011;2694;48.950;8.970;2023-02-01T00:42:03;1.90;;;1.60;;
5343;SDS011;2694;48.950;8.970;2023-02-01T00:44:31;1.85;;;1.60;;
5343;SDS011;2694;48.950;8.970;2023-02-01T00:47:00;1.70;;;1.50;;
5343;SDS011;2694;48.950;8.970;2023-02-01T00:49:27;2.20;;;1.77;;
5343;SDS011;2694;48.950;8.970;2023-02-01T00:51:55;3.93;;;1.67;;
5343;SDS011;2694;48.950;8.970;2023-02-01T00:54:21;1.90;;;1.50;;
5343;SDS011;2694;48.950;8.970;2023-02-01T00:56:48;2.58;;;1.80;;
5343;SDS011;2694;48.950;8.970;2023-02-01T00:59:15;5.55;;;1.90;;
5343;SDS011;2694;48.950;8.970;2023-02-01T01:01:44;2.55;;;1.67;;
5343;SDS011;2694;48.950;8.970;2023-02-01T01:04:10;3.38;;;1.63;;
5343;SDS011;2694;48.950;8.970;2023-02-01T01:06:37;2.20;;;1.48;;
5343;SDS011;2694;48.950;8.970;2023-02-01T01:09:05;3.67;;;1.75;;
5343;SDS011;2694;48.950;8.970;2023-02-01T01:11:34;2.65;;;1.50;;
5343;SDS011;2694;48.950;8.970;2023-02-01T01:14:02;4.05;;;1.80;;
5343;SDS011;2694;48.950;8.970;2023-02-01T01:16:30;3.92;;;1.80;;
5343;SDS011;2694;48.950;8.970;2023-02-01T01:18:59;2.38;;;1.48;;
5343;SDS011;2694;48.950;8.970;2023-02-01T01:21:27;2.65;;;1.40;;
5343;SDS011;2694;48.950;8.970;2023-02-01T01:23:54;3.80;;;1.30;;
5343;SDS011;2694;48.950;8.970;2023-02-01T01:26:22;2.95;;;1.40;;
5343;SDS011;2694;48.950;8.970;2023-02-01T01:28:50;2.40;;;1.40;;
5343;SDS011;2694;48.950;8.970;2023-02-01T01:31:18;2.97;;;1.50;;
5343;SDS011;2694;48.950;8.970;2023-02-01T01:33:49;1.80;;;1.40;;
5343;SDS011;2694;48.950;8.970;2023-02-01T01:36:19;3.08;;;1.50;;
5343;SDS011;2694;48.950;8.970;2023-02-01T01:38:47;2.60;;;1.42;;
5343;SDS011;2694;48.950;8.970;2023-02-01T01:41:14;5.80;;;2.20;;
5343;SDS011;2694;48.950;8.970;2023-02-01T01:43:47;1.90;;;1.30;;
5343;SDS011;2694;48.950;8.970;2023-02-01T01:46:19;3.47;;;1.60;;
5343;SDS011;2694;48.950;8.970;2023-02-01T01:48:48;2.33;;;1.40;;
5343;SDS011;2694;48.950;8.970;2023-02-01T01:51:20;3.30;;;1.50;;
5343;SDS011;2694;48.950;8.970;2023-02-01T01:53:53;2.40;;;1.25;;
5343;SDS011;2694;48.950;8.970;2023-02-01T01:56:23;1.48;;;1.25;;
5343;SDS011;2694;48.950;8.970;2023-02-01T01:58:52;1.35;;;1.25;;
5343;SDS011;2694;48.950;8.970;2023-02-01T02:01:20;5.22;;;2.10;;
5343;SDS011;2694;48.950;8.970;2023-02-01T02:03:47;3.08;;;1.65;;
5343;SDS011;2694;48.950;8.970;2023-02-01T02:06:17;2.55;;;1.50;;
5343;SDS011;2694;48.950;8.970;2023-02-01T02:08:52;2.40;;;1.60;;
5343;SDS011;2694;48.950;8.970;2023-02-01T02:11:19;4.40;;;1.60;;
5343;SDS011;2694;48.950;8.970;2023-02-01T02:13:47;2.00;;;1.80;;
5343;SDS011;2694;48.950;8.970;2023-02-01T02:16:30;6.50;;;1.95;;
5343;SDS011;2694;48.950;8.970;2023-02-01T02:19:22;3.25;;;1.40;;
5343;SDS011;2694;48.950;8.970;2023-02-01T02:22:18;1.80;;;1.47;;
5343;SDS011;2694;48.950;8.970;2023-02-01T02:28:26;4.88;;;1.17;;
5343;SDS011;2694;48.950;8.970;2023-02-01T02:31:17;2.33;;;1.30;;
5343;SDS011;2694;48.950;8.970;2023-02-01T02:34:07;2.50;;;1.40;;
5343;SDS011;2694;48.950;8.970;2023-02-01T02:36:43;1.60;;;1.30;;
5343;SDS011;2694;48.950;8.970;2023-02-01T02:39:21;3.67;;;1.35;;
5343;SDS011;2694;48.950;8.970;2023-02-01T02:41:58;2.30;;;1.20;;
5343;SDS011;2694;48.950;8.970;2023-02-01T02:44:49;1.90;;;1.38;;
5343;SDS011;2694;48.950;8.970;2023-02-01T02:47:40;1.65;;;1.20;;
5343;SDS011;2694;48.950;8.970;2023-02-01T02:50:15;1.77;;;1.20;;
5343;SDS011;2694;48.950;8.970;2023-02-01T02:53:09;1.90;;;0.90;;
5343;SDS011;2694;48.950;8.970;2023-02-01T02:55:57;1.80;;;1.30;;
5343;SDS011;2694;48.950;8.970;2023-02-01T02:58:43;2.10;;;1.08;;
5343;SDS011;2694;48.950;8.970;2023-02-01T03:01:30;1.95;;;1.00;;
5343;SDS011;2694;48.950;8.970;2023-02-01T03:04:16;1.40;;;1.00;;
5343;SDS011;2694;48.950;8.970;2023-02-01T03:06:44;3.08;;;0.90;;
5343;SDS011;2694;48.950;8.970;2023-02-01T03:09:13;1.60;;;1.00;;
5343;SDS011;2694;48.950;8.970;2023-02-01T03:11:45;1.50;;;1.33;;
5343;SDS011;2694;48.950;8.970;2023-02-01T03:14:31;1.70;;;1.10;;
5343;SDS011;2694;48.950;8.970;2023-02-01T03:17:01;1.30;;;0.93;;
5343;SDS011;2694;48.950;8.970;2023-02-01T03:19:33;1.23;;;1.00;;
5343;SDS011;2694;48.950;8.970;2023-02-01T03:22:05;3.53;;;1.13;;
5343;SDS011;2694;48.950;8.970;2023-02-01T03:24:34;1.90;;;1.40;;
5343;SDS011;2694;48.950;8.970;2023-02-01T03:27:05;1.13;;;1.00;;
5343;SDS011;2694;48.950;8.970;2023-02-01T03:29:40;1.53;;;1.30;;
5343;SDS011;2694;48.950;8.970;2023-02-01T03:32:12;1.38;;;1.08;;
5343;SDS011;2694;48.950;8.970;2023-02-01T03:34:39;1.40;;;0.70;;
5343;SDS011;2694;48.950;8.970;2023-02-01T03:37:08;1.33;;;0.80;;
5343;SDS011;2694;48.950;8.970;2023-02-01T03:39:38;1.40;;;0.80;;
5343;SDS011;2694;48.950;8.970;2023-02-01T03:42:10;1.00;;;0.90;;
5343;SDS011;2694;48.950;8.970;2023-02-01T03:44:41;1.50;;;1.10;;
5343;SDS011;2694;48.950;8.970;2023-02-01T03:47:13;1.13;;;1.02;;
5343;SDS011;2694;48.950;8.970;2023-02-01T03:49:45;1.77;;;0.82;;
5343;SDS011;2694;48.950;8.970;2023-02-01T03:52:18;0.90;;;0.80;;
5343;SDS011;2694;48.950;8.970;2023-02-01T03:54:49;1.60;;;0.60;;
5343;SDS011;2694;48.950;8.970;2023-02-01T03:57:18;1.52;;;0.80;;
5343;SDS011;2694;48.950;8.970;2023-02-01T03:59:52;4.50;;;1.30;;
5343;SDS011;2694;48.950;8.970;2023-02-01T04:02:19;2.35;;;1.35;;
5343;SDS011;2694;48.950;8.970;2023-02-01T04:04:45;3.60;;;1.10;;
5343;SDS011;2694;48.950;8.970;2023-02-01T04:07:12;1.75;;;1.40;;
5343;SDS011;2694;48.950;8.970;2023-02-01T04:09:40;3.42;;;1.40;;
5343;SDS011;2694;48.950;8.970;2023-02-01T04:12:07;3.05;;;1.38;;
5343;SDS011;2694;48.950;8.970;2023-02-01T04:14:34;2.50;;;1.30;;
5343;SDS011;2694;48.950;8.970;2023-02-01T04:17:01;1.90;;;1.30;;
5343;SDS011;2694;48.950;8.970;2023-02-01T04:19:28;3.00;;;1.40;;
5343;SDS011;2694;48.950;8.970;2023-02-01T04:21:55;3.42;;;1.60;;
5343;SDS011;2694;48.950;8.970;2023-02-01T04:24:22;2.22;;;1.20;;
5343;SDS011;2694;48.950;8.970;2023-02-01T04:26:50;2.88;;;1.40;;
5343;SDS011;2694;48.950;8.970;2023-02-01T04:29:17;1.60;;;1.15;;
5343;SDS011;2694;48.950;8.970;2023-02-01T04:31:44;2.97;;;1.40;;
5343;SDS011;2694;48.950;8.970;2023-02-01T04:34:11;2.23;;;1.27;;
5343;SDS011;2694;48.950;8.970;2023-02-01T04:36:38;2.17;;;1.30;;
5343;SDS011;2694;48.950;8.970;2023-02-01T04:39:05;2.10;;;1.20;;
5343;SDS011;2694;48.950;8.970;2023-02-01T04:41:32;2.67;;;1.10;;
5343;SDS011;2694;48.950;8.970;2023-02-01T04:44:00;1.52;;;1.10;;
5343;SDS011;2694;48.950;8.970;2023-02-01T04:46:27;4.05;;;1.20;;
5343;SDS011;2694;48.950;8.970;2023-02-01T04:48:54;1.35;;;0.90;;
5343;SDS011;2694;48.950;8.970;2023-02-01T04:51:21;1.08;;;0.93;;
5343;SDS011;2694;48.950;8.970;2023-02-01T04:53:47;3.60;;;1.73;;
5343;SDS011;2694;48.950;8.970;2023-02-01T04:56:14;1.83;;;0.90;;
5343;SDS011;2694;48.950;8.970;2023-02-01T04:58:41;2.53;;;0.88;;
5343;SDS011;2694;48.950;8.970;2023-02-01T05:01:09;3.40;;;1.00;;
5343;SDS011;2694;48.950;8.970;2023-02-01T05:03:36;2.97;;;1.02;;
5343;SDS011;2694;48.950;8.970;2023-02-01T05:06:03;1.42;;;1.08;;
5343;SDS011;2694;48.950;8.970;2023-02-01T05:08:30;3.30;;;1.50;;
5343;SDS011;2694;48.950;8.970;2023-02-01T05:10:58;1.73;;;1.20;;
5343;SDS011;2694;48.950;8.970;2023-02-01T05:13:27;2.83;;;1.60;;
5343;SDS011;2694;48.950;8.970;2023-02-01T05:16:13;1.73;;;1.40;;
5343;SDS011;2694;48.950;8.970;2023-02-01T05:18:40;2.88;;;1.63;;
5343;SDS011;2694;48.950;8.970;2023-02-01T05:21:07;2.90;;;1.60;;
5343;SDS011;2694;48.950;8.970;2023-02-01T05:23:34;2.70;;;1.52;;
5343;SDS011;2694;48.950;8.970;2023-02-01T05:26:21;4.25;;;1.83;;
5343;SDS011;2694;48.950;8.970;2023-02-01T05:28:48;2.30;;;1.00;;
5343;SDS011;2694;48.950;8.970;2023-02-01T05:31:16;2.00;;;1.23;;
5343;SDS011;2694;48.950;8.970;2023-02-01T05:33:43;4.70;;;1.40;;
5343;SDS011;2694;48.950;8.970;2023-02-01T05:36:10;5.75;;;1.40;;
5343;SDS011;2694;48.950;8.970;2023-02-01T05:38:37;2.95;;;1.23;;
5343;SDS011;2694;48.950;8.970;2023-02-01T05:41:04;1.23;;;1.13;;
5343;SDS011;2694;48.950;8.970;2023-02-01T05:43:31;1.73;;;0.88;;
5343;SDS011;2694;48.950;8.970;2023-02-01T05:45:57;2.50;;;1.10;;
5343;SDS011;2694;48.950;8.970;2023-02-01T05:48:26;1.00;;;0.90;;
5343;SDS011;2694;48.950;8.970;2023-02-01T05:50:53;1.55;;;0.95;;
5343;SDS011;2694;48.950;8.970;2023-02-01T05:53:19;2.30;;;1.33;;
5343;SDS011;2694;48.950;8.970;2023-02-01T05:55:46;5.82;;;1.40;;
5343;SDS011;2694;48.950;8.970;2023-02-01T05:58:13;1.92;;;1.70;;
5343;SDS011;2694;48.950;8.970;2023-02-01T06:00:40;3.15;;;1.63;;
5343;SDS011;2694;48.950;8.970;2023-02-01T06:03:07;3.40;;;1.80;;
5343;SDS011;2694;48.950;8.970;2023-02-01T06:05:36;2.10;;;1.70;;
5343;SDS011;2694;48.950;8.970;2023-02-01T06:08:03;4.63;;;2.42;;
5343;SDS011;2694;48.950;8.970;2023-02-01T06:10:32;4.22;;;2.60;;
5343;SDS011;2694;48.950;8.970;2023-02-01T06:12:59;7.10;;;3.10;;
5343;SDS011;2694;48.950;8.970;2023-02-01T06:15:28;5.32;;;2.78;;
5343;SDS011;2694;48.950;8.970;2023-02-01T06:17:55;5.20;;;2.80;;
5343;SDS011;2694;48.950;8.970;2023-02-01T06:20:22;6.35;;;3.20;;
5343;SDS011;2694;48.950;8.970;2023-02-01T06:22:50;5.75;;;3.13;;
5343;SDS011;2694;48.950;8.970;2023-02-01T06:25:17;15.95;;;4.25;;
5343;SDS011;2694;48.950;8.970;2023-02-01T06:27:45;6.15;;;3.20;;
5343;SDS011;2694;48.950;8.970;2023-02-01T06:30:13;6.93;;;3.28;;
5343;SDS011;2694;48.950;8.970;2023-02-01T06:32:40;4.80;;;3.00;;
5343;SDS011;2694;48.950;8.970;2023-02-01T06:35:08;6.53;;;3.30;;
5343;SDS011;2694;48.950;8.970;2023-02-01T06:37:36;5.90;;;3.10;;
5343;SDS011;2694;48.950;8.970;2023-02-01T06:40:05;9.85;;;3.25;;
5343;SDS011;2694;48.950;8.970;2023-02-01T06:42:33;10.47;;;3.70;;
5343;SDS011;2694;48.950;8.970;2023-02-01T06:45:00;9.98;;;3.75;;
5343;SDS011;2694;48.950;8.970;2023-02-01T06:47:27;10.93;;;4.00;;
5343;SDS011;2694;48.950;8.970;2023-02-01T06:49:54;8.15;;;4.20;;
5343;SDS011;2694;48.950;8.970;2023-02-01T06:52:22;8.88;;;4.03;;
5343;SDS011;2694;48.950;8.970;2023-02-01T06:54:48;7.43;;;4.00;;
5343;SDS011;2694;48.950;8.970;2023-02-01T06:57:17;10.88;;;3.80;;
5343;SDS011;2694;48.950;8.970;2023-02-01T06:59:44;7.32;;;3.90;;
5343;SDS011;2694;48.950;8.970;2023-02-01T07:02:10;12.82;;;3.80;;
5343;SDS011;2694;48.950;8.970;2023-02-01T07:04:37;7.53;;;3.83;;
5343;SDS011;2694;48.950;8.970;2023-02-01T07:07:04;8.77;;;3.50;;
5343;SDS011;2694;48.950;8.970;2023-02-01T07:09:31;8.50;;;3.83;;
5343;SDS011;2694;48.950;8.970;2023-02-01T07:11:58;8.10;;;3.73;;
5343;SDS011;2694;48.950;8.970;2023-02-01T07:14:26;11.30;;;4.03;;
5343;SDS011;2694;48.950;8.970;2023-02-01T07:16:53;8.30;;;3.90;;
5343;SDS011;2694;48.950;8.970;2023-02-01T07:19:20;10.85;;;3.63;;
5343;SDS011;2694;48.950;8.970;2023-02-01T07:21:47;8.93;;;3.80;;
5343;SDS011;2694;48.950;8.970;2023-02-01T07:24:14;9.20;;;4.10;;
5343;SDS011;2694;48.950;8.970;2023-02-01T07:26:41;12.38;;;4.20;;
5343;SDS011;2694;48.950;8.970;2023-02-01T07:29:07;11.50;;;3.85;;
5343;SDS011;2694;48.950;8.970;2023-02-01T07:31:36;9.15;;;4.00;;
5343;SDS011;2694;48.950;8.970;2023-02-01T07:34:02;8.25;;;3.50;;
5343;SDS011;2694;48.950;8.970;2023-02-01T07:36:29;7.30;;;3.60;;
5343;SDS011;2694;48.950;8.970;2023-02-01T07:38:58;11.40;;;3.92;;
5343;SDS011;2694;48.950;8.970;2023-02-01T07:41:25;9.70;;;3.80;;
5343;SDS011;2694;48.950;8.970;2023-02-01T07:43:52;9.80;;;3.90;;
5343;SDS011;2694;48.950;8.970;2023-02-01T07:46:19;9.13;;;4.18;;
5343;SDS011;2694;48.950;8.970;2023-02-01T07:48:47;15.43;;;4.83;;
5343;SDS011;2694;48.950;8.970;2023-02-01T07:51:15;11.15;;;5.07;;
5343;SDS011;2694;48.950;8.970;2023-02-01T07:53:43;15.50;;;5.40;;
5343;SDS011;2694;48.950;8.970;2023-02-01T07:56:11;14.65;;;4.95;;
5343;SDS011;2694;48.950;8.970;2023-02-01T07:58:39;11.55;;;4.70;;
5343;SDS011;2694;48.950;8.970;2023-02-01T08:01:10;14.80;;;4.75;;
5343;SDS011;2694;48.950;8.970;2023-02-01T08:03:44;7.10;;;3.30;;
5343;SDS011;2694;48.950;8.970;2023-02-01T08:06:13;8.73;;;3.60;;
5343;SDS011;2694;48.950;8.970;2023-02-01T08:08:40;7.38;;;3.80;;
5343;SDS011;2694;48.950;8.970;2023-02-01T08:11:07;7.67;;;3.40;;
5343;SDS011;2694;48.950;8.970;2023-02-01T08:13:34;10.18;;;4.10;;
5343;SDS011;2694;48.950;8.970;2023-02-01T08:16:02;13.32;;;3.70;;
5343;SDS011;2694;48.950;8.970;2023-02-01T08:18:31;14.32;;;3.65;;
5343;SDS011;2694;48.950;8.970;2023-02-01T08:21:02;14.95;;;3.65;;
5343;SDS011;2694;48.950;8.970;2023-02-01T08:23:32;11.27;;;3.47;;
5343;SDS011;2694;48.950;8.970;2023-02-01T08:26:08;15.23;;;3.72;;
5343;SDS011;2694;48.950;8.970;2023-02-01T08:28:36;14.73;;;3.53;;
5343;SDS011;2694;48.950;8.970;2023-02-01T08:31:05;10.40;;;3.58;;
5343;SDS011;2694;48.950;8.970;2023-02-01T08:33:33;13.30;;;3.63;;
5343;SDS011;2694;48.950;8.970;2023-02-01T08:36:01;10.95;;;2.92;;
5343;SDS011;2694;48.950;8.970;2023-02-01T08:38:28;10.57;;;3.20;;
5343;SDS011;2694;48.950;8.970;2023-02-01T08:40:56;15.35;;;3.10;;
5343;SDS011;2694;48.950;8.970;2023-02-01T08:43:23;11.30;;;2.90;;
5343;SDS011;2694;48.950;8.970;2023-02-01T08:45:53;12.65;;;3.10;;
5343;SDS011;2694;48.950;8.970;2023-02-01T08:48:21;11.65;;;3.10;;
5343;SDS011;2694;48.950;8.970;2023-02-01T08:50:48;10.95;;;3.35;;
5343;SDS011;2694;48.950;8.970;2023-02-01T08:53:15;8.98;;;2.60;;
5343;SDS011;2694;48.950;8.970;2023-02-01T08:55:42;7.88;;;2.40;;
5343;SDS011;2694;48.950;8.970;2023-02-01T08:58:10;7.82;;;2.92;;
5343;SDS011;2694;48.950;8.970;2023-02-01T09:00:38;7.95;;;2.90;;
5343;SDS011;2694;48.950;8.970;2023-02-01T09:03:07;9.57;;;3.20;;
5343;SDS011;2694;48.950;8.970;2023-02-01T09:05:36;11.65;;;3.08;;
5343;SDS011;2694;48.950;8.970;2023-02-01T09:08:03;10.55;;;2.90;;
5343;SDS011;2694;48.950;8.970;2023-02-01T09:10:30;9.30;;;2.85;;
5343;SDS011;2694;48.950;8.970;2023-02-01T09:12:57;12.97;;;3.00;;
5343;SDS011;2694;48.950;8.970;2023-02-01T09:15:25;12.57;;;3.88;;
5343;SDS011;2694;48.950;8.970;2023-02-01T09:17:52;12.20;;;2.90;;
5343;SDS011;2694;48.950;8.970;2023-02-01T09:20:19;8.70;;;2.88;;
5343;SDS011;2694;48.950;8.970;2023-02-01T09:22:49;9.30;;;3.20;;
5343;SDS011;2694;48.950;8.970;2023-02-01T09:25:16;8.45;;;2.80;;
5343;SDS011;2694;48.950;8.970;2023-02-01T09:27:43;12.88;;;2.92;;
5343;SDS011;2694;48.950;8.970;2023-02-01T09:30:10;12.23;;;3.10;;
5343;SDS011;2694;48.950;8.970;2023-02-01T09:32:39;15.03;;;3.00;;
5343;SDS011;2694;48.950;8.970;2023-02-01T09:35:06;15.32;;;3.05;;
5343;SDS011;2694;48.950;8.970;2023-02-01T09:37:33;14.63;;;2.90;;
5343;SDS011;2694;48.950;8.970;2023-02-01T09:40:01;11.93;;;3.30;;
5343;SDS011;2694;48.950;8.970;2023-02-01T09:42:39;13.55;;;3.10;;
5343;SDS011;2694;48.950;8.970;2023-02-01T09:45:20;12.38;;;2.92;;
5343;SDS011;2694;48.950;8.970;2023-02-01T09:47:54;15.05;;;3.00;;
5343;SDS011;2694;48.950;8.970;2023-02-01T09:50:27;9.63;;;3.28;;
5343;SDS011;2694;48.950;8.970;2023-02-01T09:52:59;17.25;;;4.07;;
5343;SDS011;2694;48.950;8.970;2023-02-01T09:55:32;13.30;;;3.00;;
5343;SDS011;2694;48.950;8.970;2023-02-01T09:58:05;13.60;;;2.63;;
5343;SDS011;2694;48.950;8.970;2023-02-01T10:00:35;13.32;;;3.50;;
5343;SDS011;2694;48.950;8.970;2023-02-01T10:03:05;10.18;;;2.72;;
5343;SDS011;2694;48.950;8.970;2023-02-01T10:05:49;9.00;;;2.47;;
5343;SDS011;2694;48.950;8.970;2023-02-01T10:08:38;11.05;;;2.42;;
5343;SDS011;2694;48.950;8.970;2023-02-01T10:11:36;9.38;;;2.35;;
5343;SDS011;2694;48.950;8.970;2023-02-01T10:14:25;13.35;;;2.90;;
5343;SDS011;2694;48.950;8.970;2023-02-01T10:17:08;10.63;;;2.63;;
5343;SDS011;2694;48.950;8.970;2023-02-01T10:19:51;8.48;;;2.03;;
5343;SDS011;2694;48.950;8.970;2023-02-01T10:22:33;16.30;;;2.80;;
5343;SDS011;2694;48.950;8.970;2023-02-01T10:25:08;11.67;;;2.80;;
5343;SDS011;2694;48.950;8.970;2023-02-01T10:27:42;15.55;;;2.72;;
5343;SDS011;2694;48.950;8.970;2023-02-01T10:30:14;15.77;;;3.15;;
5343;SDS011;2694;48.950;8.970;2023-02-01T10:32:45;11.73;;;2.92;;
5343;SDS011;2694;48.950;8.970;2023-02-01T10:35:17;16.75;;;3.13;;
5343;SDS011;2694;48.950;8.970;2023-02-01T10:37:48;11.65;;;2.85;;
5343;SDS011;2694;48.950;8.970;2023-02-01T10:40:16;13.48;;;3.45;;
5343;SDS011;2694;48.950;8.970;2023-02-01T10:42:46;11.77;;;2.28;;
5343;SDS011;2694;48.950;8.970;2023-02-01T10:45:16;11.55;;;3.00;;
5343;SDS011;2694;48.950;8.970;2023-02-01T10:47:45;13.57;;;2.97;;
5343;SDS011;2694;48.950;8.970;2023-02-01T10:50:19;13.57;;;2.60;;
5343;SDS011;2694;48.950;8.970;2023-02-01T10:52:57;10.48;;;2.75;;
5343;SDS011;2694;48.950;8.970;2023-02-01T10:55:32;10.30;;;2.60;;
5343;SDS011;2694;48.950;8.970;2023-02-01T10:58:03;11.43;;;2.60;;
5343;SDS011;2694;48.950;8.970;2023-02-01T11:00:34;12.77;;;2.70;;
5343;SDS011;2694;48.950;8.970;2023-02-01T11:03:30;12.10;;;2.60;;
5343;SDS011;2694;48.950;8.970;2023-02-01T11:06:01;10.75;;;2.80;;
5343;SDS011;2694;48.950;8.970;2023-02-01T11:08:40;13.65;;;2.63;;
5343;SDS011;2694;48.950;8.970;2023-02-01T11:11:10;12.18;;;3.17;;
5343;SDS011;2694;48.950;8.970;2023-02-01T11:13:38;11.88;;;2.83;;
5343;SDS011;2694;48.950;8.970;2023-02-01T11:16:06;12.25;;;3.03;;
5343;SDS011;2694;48.950;8.970;2023-02-01T11:18:37;11.48;;;2.40;;
5343;SDS011;2694;48.950;8.970;2023-02-01T11:21:06;11.10;;;2.50;;
5343;SDS011;2694;48.950;8.970;2023-02-01T11:23:36;12.70;;;2.40;;
5343;SDS011;2694;48.950;8.970;2023-02-01T11:26:11;11.90;;;2.63;;
5343;SDS011;2694;48.950;8.970;2023-02-01T11:28:40;9.77;;;2.65;;
5343;SDS011;2694;48.950;8.970;2023-02-01T11:31:16;9.27;;;2.70;;
5343;SDS011;2694;48.950;8.970;2023-02-01T11:33:45;14.10;;;2.35;;
5343;SDS011;2694;48.950;8.970;2023-02-01T11:36:18;14.48;;;2.90;;
5343;SDS011;2694;48.950;8.970;2023-02-01T11:38:51;8.25;;;2.45;;
5343;SDS011;2694;48.950;8.970;2023-02-01T11:41:21;7.65;;;2.13;;
5343;SDS011;2694;48.950;8.970;2023-02-01T11:43:53;10.18;;;2.35;;
5343;SDS011;2694;48.950;8.970;2023-02-01T11:46:24;9.65;;;2.33;;
5343;SDS011;2694;48.950;8.970;2023-02-01T11:48:54;10.07;;;2.40;;
5343;SDS011;2694;48.950;8.970;2023-02-01T11:51:33;13.20;;;2.40;;
5343;SDS011;2694;48.950;8.970;2023-02-01T11:54:18;11.13;;;2.20;;
5343;SDS011;2694;48.950;8.970;2023-02-01T11:56:57;11.88;;;2.30;;
5343;SDS011;2694;48.950;8.970;2023-02-01T11:59:53;13.80;;;3.15;;
5343;SDS011;2694;48.950;8.970;2023-02-01T12:05:35;8.77;;;2.20;;
5343;SDS011;2694;48.950;8.970;2023-02-01T12:08:16;17.20;;;3.35;;
5343;SDS011;2694;48.950;8.970;2023-02-01T12:10:58;14.57;;;2.42;;
5343;SDS011;2694;48.950;8.970;2023-02-01T12:13:49;11.15;;;2.50;;
5343;SDS011;2694;48.950;8.970;2023-02-01T12:16:25;9.73;;;2.70;;
5343;SDS011;2694;48.950;8.970;2023-02-01T12:19:15;10.27;;;2.10;;
5343;SDS011;2694;48.950;8.970;2023-02-01T12:22:04;11.35;;;2.10;;
5343;SDS011;2694;48.950;8.970;2023-02-01T12:24:48;12.80;;;2.40;;
5343;SDS011;2694;48.950;8.970;2023-02-01T12:30:18;7.78;;;2.45;;
5343;SDS011;2694;48.950;8.970;2023-02-01T12:32:57;16.30;;;3.40;;
5343;SDS011;2694;48.950;8.970;2023-02-01T12:35:38;7.60;;;2.28;;
5343;SDS011;2694;48.950;8.970;2023-02-01T12:38:26;10.52;;;2.58;;
5343;SDS011;2694;48.950;8.970;2023-02-01T12:41:08;8.43;;;2.03;;
5343;SDS011;2694;48.950;8.970;2023-02-01T12:43:56;14.25;;;2.45;;
5343;SDS011;2694;48.950;8.970;2023-02-01T12:46:26;15.73;;;3.20;;
5343;SDS011;2694;48.950;8.970;2023-02-01T12:48:59;15.00;;;3.38;;
5343;SDS011;2694;48.950;8.970;2023-02-01T12:51:31;6.65;;;2.20;;
5343;SDS011;2694;48.950;8.970;2023-02-01T12:54:02;14.63;;;3.25;;
5343;SDS011;2694;48.950;8.970;2023-02-01T12:56:35;15.40;;;2.70;;
5343;SDS011;2694;48.950;8.970;2023-02-01T12:59:09;11.95;;;2.65;;
5343;SDS011;2694;48.950;8.970;2023-02-01T13:01:44;10.63;;;2.50;;
5343;SDS011;2694;48.950;8.970;2023-02-01T13:04:18;9.07;;;2.60;;
5343;SDS011;2694;48.950;8.970;2023-02-01T13:06:52;19.20;;;3.30;;
5343;SDS011;2694;48.950;8.970;2023-02-01T13:09:24;16.02;;;3.15;;
5343;SDS011;2694;48.950;8.970;2023-02-01T13:11:57;15.50;;;2.73;;
5343;SDS011;2694;48.950;8.970;2023-02-01T13:14:33;14.85;;;3.10;;
5343;SDS011;2694;48.950;8.970;2023-02-01T13:17:05;10.45;;;2.47;;
5343;SDS011;2694;48.950;8.970;2023-02-01T13:19:41;10.65;;;2.20;;
5343;SDS011;2694;48.950;8.970;2023-02-01T13:22:16;11.02;;;3.30;;
5343;SDS011;2694;48.950;8.970;2023-02-01T13:24:47;16.98;;;2.92;;
5343;SDS011;2694;48.950;8.970;2023-02-01T13:27:18;14.15;;;3.67;;
5343;SDS011;2694;48.950;8.970;2023-02-01T13:29:46;10.43;;;2.08;;
5343;SDS011;2694;48.950;8.970;2023-02-01T13:35:34;8.27;;;2.28;;
5343;SDS011;2694;48.950;8.970;2023-02-01T13:38:27;9.60;;;2.38;;
5343;SDS011;2694;48.950;8.970;2023-02-01T13:41:23;8.57;;;2.33;;
5343;SDS011;2694;48.950;8.970;2023-02-01T13:43:55;9.47;;;2.03;;
5343;SDS011;2694;48.950;8.970;2023-02-01T13:46:25;12.40;;;2.50;;
5343;SDS011;2694;48.950;8.970;2023-02-01T13:48:54;9.70;;;2.20;;
5343;SDS011;2694;48.950;8.970;2023-02-01T13:51:35;15.60;;;2.97;;
5343;SDS011;2694;48.950;8.970;2023-02-01T13:54:03;9.65;;;2.28;;
5343;SDS011;2694;48.950;8.970;2023-02-01T13:56:39;9.10;;;2.30;;
5343;SDS011;2694;48.950;8.970;2023-02-01T14:08:37;9.63;;;2.70;;
5343;SDS011;2694;48.950;8.970;2023-02-01T14:11:05;10.05;;;2.80;;
5343;SDS011;2694;48.950;8.970;2023-02-01T14:13:33;8.30;;;2.42;;
5343;SDS011;2694;48.950;8.970;2023-02-01T14:16:12;11.60;;;2.50;;
5343;SDS011;2694;48.950;8.970;2023-02-01T14:18:54;14.87;;;2.90;;
5343;SDS011;2694;48.950;8.970;2023-02-01T14:21:28;13.43;;;3.03;;
5343;SDS011;2694;48.950;8.970;2023-02-01T14:23:57;10.90;;;2.70;;
5343;SDS011;2694;48.950;8.970;2023-02-01T14:26:27;10.75;;;2.17;;
5343;SDS011;2694;48.950;8.970;2023-02-01T14:29:21;11.27;;;2.10;;
5343;SDS011;2694;48.950;8.970;2023-02-01T14:31:54;10.70;;;2.50;;
5343;SDS011;2694;48.950;8.970;2023-02-01T14:34:31;12.13;;;2.75;;
5343;SDS011;2694;48.950;8.970;2023-02-01T14:37:03;12.98;;;2.67;;
5343;SDS011;2694;48.950;8.970;2023-02-01T14:39:46;11.45;;;2.70;;
5343;SDS011;2694;48.950;8.970;2023-02-01T14:42:22;10.43;;;2.97;;
5343;SDS011;2694;48.950;8.970;2023-02-01T14:44:53;11.68;;;2.47;;
5343;SDS011;2694;48.950;8.970;2023-02-01T14:47:32;10.00;;;2.55;;
5343;SDS011;2694;48.950;8.970;2023-02-01T14:53:02;10.30;;;2.78;;
5343;SDS011;2694;48.950;8.970;2023-02-01T14:55:38;10.95;;;2.65;;
5343;SDS011;2694;48.950;8.970;2023-02-01T14:58:14;16.07;;;3.37;;
5343;SDS011;2694;48.950;8.970;2023-02-01T15:00:49;14.82;;;2.78;;
5343;SDS011;2694;48.950;8.970;2023-02-01T15:03:29;10.80;;;2.20;;
5343;SDS011;2694;48.950;8.970;2023-02-01T15:06:25;8.65;;;1.90;;
5343;SDS011;2694;48.950;8.970;2023-02-01T15:08:57;10.95;;;2.35;;
5343;SDS011;2694;48.950;8.970;2023-02-01T15:11:26;16.33;;;2.42;;
5343;SDS011;2694;48.950;8.970;2023-02-01T15:13:53;11.40;;;1.92;;
5343;SDS011;2694;48.950;8.970;2023-02-01T15:16:22;15.30;;;2.50;;
5343;SDS011;2694;48.950;8.970;2023-02-01T15:18:51;15.80;;;2.85;;
5343;SDS011;2694;48.950;8.970;2023-02-01T15:21:42;8.10;;;2.90;;
5343;SDS011;2694;48.950;8.970;2023-02-01T15:24:14;11.40;;;2.30;;
5343;SDS011;2694;48.950;8.970;2023-02-01T15:26:45;7.45;;;1.75;;
5343;SDS011;2694;48.950;8.970;2023-02-01T15:29:13;10.50;;;2.73;;
5343;SDS011;2694;48.950;8.970;2023-02-01T15:31:41;13.68;;;2.80;;
5343;SDS011;2694;48.950;8.970;2023-02-01T15:34:11;10.38;;;2.47;;
5343;SDS011;2694;48.950;8.970;2023-02-01T15:36:39;11.85;;;2.63;;
5343;SDS011;2694;48.950;8.970;2023-02-01T15:39:13;12.32;;;2.58;;
5343;SDS011;2694;48.950;8.970;2023-02-01T15:41:46;12.77;;;2.10;;
5343;SDS011;2694;48.950;8.970;2023-02-01T15:44:17;9.43;;;2.20;;
5343;SDS011;2694;48.950;8.970;2023-02-01T15:46:48;10.82;;;2.45;;
5343;SDS011;2694;48.950;8.970;2023-02-01T15:49:19;19.38;;;2.45;;
5343;SDS011;2694;48.950;8.970;2023-02-01T15:51:50;12.70;;;2.53;;
5343;SDS011;2694;48.950;8.970;2023-02-01T15:54:20;11.50;;;2.00;;
5343;SDS011;2694;48.950;8.970;2023-02-01T15:56:51;18.67;;;2.80;;
5343;SDS011;2694;48.950;8.970;2023-02-01T15:59:21;9.85;;;2.25;;
5343;SDS011;2694;48.950;8.970;2023-02-01T16:01:50;13.53;;;2.30;;